createdAt,value
2018-11-05T00:00:53.805Z,28.5
2018-11-05T00:01:55.965Z,28.6
2018-11-05T00:02:58.101Z,28.6
2018-11-05T00:04:00.270Z,28.6
2018-11-05T00:05:02.159Z,28.5
2018-11-05T00:06:04.323Z,28.6
2018-11-05T00:07:06.484Z,28.5
2018-11-05T00:08:08.919Z,28.6
2018-11-05T00:09:10.807Z,28.5
2018-11-05T00:10:12.965Z,28.6
2018-11-05T00:11:15.400Z,28.6
2018-11-05T00:12:17.559Z,28.5
2018-11-05T00:13:19.722Z,28.8
2018-11-05T00:14:21.610Z,28.7
2018-11-05T00:15:23.771Z,28.7
2018-11-05T00:16:26.200Z,28.7
2018-11-05T00:17:28.635Z,28.8
2018-11-05T00:18:30.779Z,28.8
2018-11-05T00:19:33.219Z,28.9
2018-11-05T00:20:35.064Z,28.8
2018-11-05T00:21:36.949Z,28.8
2018-11-05T00:22:39.110Z,28.9
2018-11-05T00:23:40.703Z,28.9
2018-11-05T00:24:43.139Z,28.9
2018-11-05T00:25:45.615Z,28.8
2018-11-05T00:26:47.227Z,29
2018-11-05T00:27:49.389Z,28.9
2018-11-05T00:28:51.245Z,28.9
2018-11-05T00:29:53.384Z,29
2018-11-05T00:30:55.541Z,28.8
2018-11-05T00:31:57.399Z,28.8
2018-11-05T00:32:59.839Z,29
2018-11-05T00:34:01.726Z,28.9
2018-11-05T00:35:04.161Z,29
2018-11-05T00:36:06.318Z,28.9
2018-11-05T00:37:08.478Z,28.9
2018-11-05T00:38:10.638Z,29
2018-11-05T00:39:12.788Z,29.1
2018-11-05T00:40:15.231Z,29.1
2018-11-05T00:41:17.393Z,29.1
2018-11-05T00:42:19.547Z,29
2018-11-05T00:43:21.427Z,29.1
2018-11-05T00:44:23.582Z,29.1
2018-11-05T00:45:26.107Z,29.1
2018-11-05T00:46:27.761Z,29
2018-11-05T00:47:29.899Z,29.2
2018-11-05T00:48:31.787Z,29.2
2018-11-05T00:49:34.209Z,29.1
2018-11-05T00:50:36.364Z,29.1
2018-11-05T00:51:38.795Z,29.1
2018-11-05T00:52:41.664Z,29.1
2018-11-05T00:53:43.550Z,29.3
2018-11-05T00:54:45.157Z,29.1
2018-11-05T00:55:47.309Z,29.1
2018-11-05T00:56:49.746Z,29.2
2018-11-05T00:57:51.606Z,29.1
2018-11-05T00:58:54.041Z,29.2
2018-11-05T00:59:56.239Z,29.2
2018-11-05T01:00:58.389Z,29.2
2018-11-05T01:02:00.818Z,29.2
2018-11-05T01:03:03.253Z,29.2
2018-11-05T01:04:04.841Z,29.2
2018-11-05T01:05:07.000Z,29.2
2018-11-05T01:06:08.605Z,29.2
2018-11-05T01:07:10.193Z,29.3
2018-11-05T01:08:12.090Z,29.3
2018-11-05T01:09:14.230Z,29.2
2018-11-05T01:10:16.664Z,29.2
2018-11-05T01:11:18.549Z,29.4
2018-11-05T01:12:20.978Z,29.3
2018-11-05T01:13:23.410Z,29.3
2018-11-05T01:14:25.556Z,29.3
2018-11-05T01:15:27.709Z,29.3
2018-11-05T01:16:29.860Z,29.3
2018-11-05T01:17:32.286Z,29.4
2018-11-05T01:18:34.709Z,29.2
2018-11-05T01:19:37.136Z,29.2
2018-11-05T01:20:39.300Z,29.2
2018-11-05T01:21:41.486Z,29.2
2018-11-05T01:22:43.902Z,29.3
2018-11-05T01:23:46.059Z,29.2
2018-11-05T01:24:48.196Z,29.2
2018-11-05T01:25:50.630Z,29.3
2018-11-05T01:26:52.800Z,29.3
2018-11-05T01:27:55.225Z,29.3
2018-11-05T01:28:57.373Z,29.4
2018-11-05T01:29:59.546Z,29.3
2018-11-05T01:31:01.709Z,29.4
2018-11-05T01:32:03.859Z,29.3
2018-11-05T01:33:06.291Z,29.3
2018-11-05T01:34:08.149Z,29.3
2018-11-05T01:35:10.020Z,29.3
2018-11-05T01:36:12.159Z,29.6
2018-11-05T01:37:14.101Z,29.4
2018-11-05T01:38:16.449Z,29.3
2018-11-05T01:39:18.875Z,29.3
2018-11-05T01:40:21.326Z,29.4
2018-11-05T01:41:23.480Z,29.4
2018-11-05T01:42:25.645Z,29.4
2018-11-05T01:43:27.535Z,29.4
2018-11-05T01:44:29.686Z,29.4
2018-11-05T01:45:32.119Z,29.5
2018-11-05T01:46:34.255Z,29.3
2018-11-05T01:47:36.415Z,29.3
2018-11-05T01:48:38.839Z,29.4
2018-11-05T01:49:41.268Z,29.3
2018-11-05T01:50:43.429Z,29.4
2018-11-05T01:51:45.857Z,29.5
2018-11-05T01:52:48.281Z,29.3
2018-11-05T01:53:50.708Z,29.4
2018-11-05T01:54:52.859Z,29.5
2018-11-05T01:55:54.989Z,29.4
2018-11-05T01:56:57.421Z,29.4
2018-11-05T01:57:59.574Z,29.3
2018-11-05T01:59:01.988Z,29.3
2018-11-05T02:00:04.461Z,29.3
2018-11-05T02:01:06.618Z,29.3
2018-11-05T02:02:08.512Z,29.5
2018-11-05T02:03:10.370Z,29.3
2018-11-05T02:04:12.248Z,29.6
2018-11-05T02:05:14.682Z,29.6
2018-11-05T02:06:16.829Z,29.6
2018-11-05T02:07:18.421Z,29.5
2018-11-05T02:08:20.280Z,29.3
2018-11-05T02:09:22.151Z,29.4
2018-11-05T02:10:24.514Z,29.5
2018-11-05T02:11:26.589Z,29.3
2018-11-05T02:12:29.015Z,29.5
2018-11-05T02:13:31.731Z,29.5
2018-11-05T02:14:34.246Z,29.4
2018-11-05T02:15:36.407Z,29.4
2018-11-05T02:16:38.840Z,29.5
2018-11-05T02:17:40.727Z,29.6
2018-11-05T02:18:43.153Z,29.3
2018-11-05T02:19:45.001Z,29.5
2018-11-05T02:20:46.603Z,29.4
2018-11-05T02:21:48.743Z,29.5
2018-11-05T02:22:50.875Z,29.6
2018-11-05T02:23:53.315Z,29.5
2018-11-05T02:24:55.735Z,29.4
2018-11-05T02:25:57.900Z,29.4
2018-11-05T02:26:59.890Z,29.5
2018-11-05T02:28:02.148Z,29.6
2018-11-05T02:29:04.017Z,29.5
2018-11-05T02:30:05.610Z,29.4
2018-11-05T02:31:07.756Z,29.6
2018-11-05T02:32:09.910Z,29.5
2018-11-05T02:33:12.338Z,29.4
2018-11-05T02:34:14.759Z,29.5
2018-11-05T02:35:16.642Z,29.4
2018-11-05T02:36:19.079Z,29.5
2018-11-05T02:37:21.521Z,29.5
2018-11-05T02:38:24.019Z,29.4
2018-11-05T02:39:25.895Z,29.5
2018-11-05T02:40:28.055Z,29.4
2018-11-05T02:41:30.490Z,29.5
2018-11-05T02:42:32.645Z,29.5
2018-11-05T02:43:35.079Z,29.5
2018-11-05T02:44:37.508Z,29.4
2018-11-05T02:45:39.929Z,29.4
2018-11-05T02:46:41.800Z,29.4
2018-11-05T02:47:43.962Z,29.4
2018-11-05T02:48:45.849Z,29.3
2018-11-05T02:49:48.014Z,29.6
2018-11-05T02:50:49.610Z,29.6
2018-11-05T02:51:51.499Z,29.4
2018-11-05T02:52:53.648Z,29.6
2018-11-05T02:53:56.076Z,29.7
2018-11-05T02:54:58.539Z,29.5
2018-11-05T02:56:00.967Z,29.4
2018-11-05T02:57:03.397Z,29.5
2018-11-05T02:58:05.821Z,29.5
2018-11-05T02:59:08.261Z,29.5
2018-11-05T03:00:10.680Z,29.4
2018-11-05T03:01:13.109Z,29.4
2018-11-05T03:02:15.279Z,29.5
2018-11-05T03:03:17.887Z,29.7
2018-11-05T03:04:19.851Z,29.6
2018-11-05T03:05:22.017Z,29.7
2018-11-05T03:06:23.865Z,29.5
2018-11-05T03:07:26.290Z,29.5
2018-11-05T03:08:28.169Z,29.4
2018-11-05T03:09:30.328Z,29.5
2018-11-05T03:10:32.218Z,29.5
2018-11-05T03:11:34.079Z,29.6
2018-11-05T03:12:36.280Z,29.4
2018-11-05T03:13:38.427Z,29.5
2018-11-05T03:14:40.290Z,29.5
2018-11-05T03:15:42.179Z,29.6
2018-11-05T03:16:43.784Z,29.5
2018-11-05T03:17:45.944Z,29.4
2018-11-05T03:18:48.356Z,29.6
2018-11-05T03:19:50.781Z,29.7
2018-11-05T03:20:52.917Z,29.6
2018-11-05T03:21:55.080Z,29.6
2018-11-05T03:22:57.237Z,29.3
2018-11-05T03:23:59.392Z,29.6
2018-11-05T03:25:01.822Z,29.4
2018-11-05T03:26:03.949Z,29.5
2018-11-05T03:27:06.104Z,29.5
2018-11-05T03:28:08.251Z,29.6
2018-11-05T03:29:10.395Z,29.6
2018-11-05T03:30:12.528Z,29.5
2018-11-05T03:31:14.690Z,29.6
2018-11-05T03:32:17.133Z,29.6
2018-11-05T03:33:19.279Z,29.4
2018-11-05T03:34:21.429Z,29.4
2018-11-05T03:35:23.588Z,29.6
2018-11-05T03:36:25.461Z,29.6
2018-11-05T03:37:27.617Z,29.6
2018-11-05T03:38:29.208Z,29.5
2018-11-05T03:39:31.636Z,29.4
2018-11-05T03:40:33.796Z,29.5
2018-11-05T03:41:35.658Z,29.4
2018-11-05T03:42:38.087Z,29.6
2018-11-05T03:43:39.950Z,29.5
2018-11-05T03:44:41.554Z,29.5
2018-11-05T03:45:43.710Z,29.6
2018-11-05T03:46:46.132Z,29.3
2018-11-05T03:47:48.570Z,29.5
2018-11-05T03:48:50.720Z,29.5
2018-11-05T03:49:52.880Z,29.5
2018-11-05T03:50:55.312Z,29.7
2018-11-05T03:51:57.510Z,29.5
2018-11-05T03:52:59.942Z,29.6
2018-11-05T03:54:02.399Z,29.6
2018-11-05T03:55:04.811Z,29.5
2018-11-05T03:56:07.451Z,29.4
2018-11-05T03:57:09.930Z,29.5
2018-11-05T03:58:12.092Z,29.5
2018-11-05T03:59:13.949Z,29.3
2018-11-05T04:00:16.370Z,29.5
2018-11-05T04:01:18.549Z,29.7
2018-11-05T04:02:20.970Z,29.3
2018-11-05T04:03:23.139Z,29.5
2018-11-05T04:04:25.708Z,29.4
2018-11-05T04:05:27.858Z,29.4
2018-11-05T04:06:30.007Z,29.4
2018-11-05T04:07:32.420Z,29.5
2018-11-05T04:08:34.309Z,29.3
2018-11-05T04:09:36.748Z,29.3
2018-11-05T04:10:38.930Z,29.2
2018-11-05T04:11:41.077Z,29.3
2018-11-05T04:12:43.214Z,29.3
2018-11-05T04:13:45.378Z,29.2
2018-11-05T04:14:47.820Z,29.4
2018-11-05T04:15:50.350Z,29.2
2018-11-05T04:16:52.582Z,29.2
2018-11-05T04:17:54.744Z,29.2
2018-11-05T04:18:56.602Z,29.2
2018-11-05T04:19:58.462Z,29.2
2018-11-05T04:21:00.622Z,29.2
2018-11-05T04:22:03.056Z,29.2
2018-11-05T04:23:05.204Z,29.1
2018-11-05T04:24:07.352Z,29.2
2018-11-05T04:25:09.827Z,29.2
2018-11-05T04:26:12.254Z,29.3
2018-11-05T04:27:14.403Z,29.2
2018-11-05T04:28:16.290Z,29.1
2018-11-05T04:29:18.718Z,29.1
2018-11-05T04:30:20.040Z,29.1
2018-11-05T04:31:22.192Z,29.1
2018-11-05T04:32:24.076Z,29.2
2018-11-05T04:33:26.198Z,29.1
2018-11-05T04:34:28.339Z,29.1
2018-11-05T04:35:30.189Z,29.2
2018-11-05T04:36:32.632Z,29.1
2018-11-05T04:37:34.844Z,29
2018-11-05T04:38:36.744Z,29.1
2018-11-05T04:39:38.358Z,29.1
2018-11-05T04:40:40.229Z,29.1
2018-11-05T04:41:42.112Z,28.9
2018-11-05T04:42:44.009Z,29.2
2018-11-05T04:43:45.911Z,29.1
2018-11-05T04:44:47.518Z,29.1
2018-11-05T04:45:49.959Z,29.1
2018-11-05T04:46:52.126Z,29.1
2018-11-05T04:47:53.726Z,29.1
2018-11-05T04:48:56.145Z,29.1
2018-11-05T04:49:58.291Z,29.1
2018-11-05T04:50:59.614Z,29.1
2018-11-05T04:52:01.776Z,29
2018-11-05T04:53:04.203Z,29
2018-11-05T04:54:06.076Z,29.1
2018-11-05T04:55:08.220Z,29.1
2018-11-05T04:56:10.648Z,28.9
2018-11-05T04:57:13.077Z,28.8
2018-11-05T04:58:15.237Z,29
2018-11-05T04:59:16.838Z,28.8
2018-11-05T05:00:18.719Z,29.2
2018-11-05T05:01:20.859Z,29
2018-11-05T05:02:22.739Z,28.9
2018-11-05T05:03:25.044Z,28.9
2018-11-05T05:04:27.553Z,29
2018-11-05T05:05:29.979Z,29
2018-11-05T05:06:32.148Z,29.1
2018-11-05T05:07:34.577Z,28.9
2018-11-05T05:08:36.734Z,28.8
2018-11-05T05:09:39.169Z,29.1
2018-11-05T05:10:41.059Z,28.9
2018-11-05T05:11:43.219Z,28.8
2018-11-05T05:12:44.808Z,29.1
2018-11-05T05:13:46.948Z,29
2018-11-05T05:14:49.103Z,28.8
2018-11-05T05:15:50.700Z,29
2018-11-05T05:16:53.142Z,29
2018-11-05T05:17:55.295Z,28.8
2018-11-05T05:18:57.725Z,28.8
2018-11-05T05:19:59.024Z,28.8
2018-11-05T05:21:00.910Z,29
2018-11-05T05:22:03.059Z,28.8
2018-11-05T05:23:06.192Z,28.9
2018-11-05T05:24:08.812Z,28.8
2018-11-05T05:25:11.029Z,28.8
2018-11-05T05:26:12.928Z,28.8
2018-11-05T05:27:15.354Z,28.8
2018-11-05T05:28:17.518Z,28.9
2018-11-05T05:29:19.949Z,28.9
2018-11-05T05:30:21.807Z,28.8
2018-11-05T05:31:23.418Z,28.8
2018-11-05T05:32:25.010Z,28.9
2018-11-05T05:33:27.499Z,29
2018-11-05T05:34:29.825Z,29
2018-11-05T05:35:32.255Z,28.9
2018-11-05T05:36:34.418Z,28.7
2018-11-05T05:37:36.008Z,28.9
2018-11-05T05:38:38.158Z,28.9
2018-11-05T05:39:40.316Z,28.8
2018-11-05T05:40:42.846Z,28.8
2018-11-05T05:41:45.541Z,28.8
2018-11-05T05:42:47.969Z,28.8
2018-11-05T05:43:50.404Z,28.8
2018-11-05T05:44:52.838Z,28.8
2018-11-05T05:45:54.989Z,28.8
2018-11-05T05:46:57.145Z,28.8
2018-11-05T05:47:59.566Z,28.8
2018-11-05T05:49:01.994Z,28.7
2018-11-05T05:50:04.356Z,28.8
2018-11-05T05:51:07.069Z,28.9
2018-11-05T05:52:08.673Z,28.7
2018-11-05T05:53:10.829Z,28.9
2018-11-05T05:54:12.983Z,28.9
2018-11-05T05:55:15.142Z,28.9
2018-11-05T05:56:17.318Z,28.9
2018-11-05T05:57:19.476Z,28.7
2018-11-05T05:58:21.911Z,28.8
2018-11-05T05:59:23.790Z,28.8
2018-11-05T06:00:25.669Z,28.8
2018-11-05T06:01:27.829Z,28.8
2018-11-05T06:02:30.258Z,28.7
2018-11-05T06:03:32.402Z,28.8
2018-11-05T06:04:34.819Z,28.9
2018-11-05T06:05:37.248Z,28.8
2018-11-05T06:06:39.925Z,28.7
2018-11-05T06:07:42.707Z,28.8
2018-11-05T06:08:44.878Z,28.8
2018-11-05T06:09:47.302Z,28.8
2018-11-05T06:10:49.736Z,28.8
2018-11-05T06:11:51.909Z,28.8
2018-11-05T06:12:54.081Z,28.7
2018-11-05T06:13:55.961Z,28.7
2018-11-05T06:14:58.117Z,28.7
2018-11-05T06:16:00.195Z,28.7
2018-11-05T06:17:03.158Z,28.7
2018-11-05T06:18:05.582Z,28.7
2018-11-05T06:19:07.201Z,28.8
2018-11-05T06:20:09.095Z,28.8
2018-11-05T06:21:10.409Z,28.7
2018-11-05T06:22:12.264Z,28.8
2018-11-05T06:23:14.428Z,28.8
2018-11-05T06:24:16.347Z,28.8
2018-11-05T06:25:18.554Z,28.8
2018-11-05T06:26:20.440Z,28.7
2018-11-05T06:27:22.872Z,28.7
2018-11-05T06:28:25.033Z,28.7
2018-11-05T06:29:27.833Z,28.8
2018-11-05T06:30:29.992Z,28.8
2018-11-05T06:31:32.435Z,28.7
2018-11-05T06:32:34.570Z,28.7
2018-11-05T06:33:36.747Z,28.8
2018-11-05T06:34:38.828Z,28.7
2018-11-05T06:35:40.717Z,28.7
2018-11-05T06:36:42.628Z,28.8
2018-11-05T06:37:44.782Z,28.8
2018-11-05T06:38:47.204Z,28.7
2018-11-05T06:39:49.365Z,28.7
2018-11-05T06:40:51.270Z,28.7
2018-11-05T06:41:53.190Z,28.7
2018-11-05T06:42:56.199Z,28.7
2018-11-05T06:43:58.177Z,28.8
2018-11-05T06:45:00.170Z,28.7
2018-11-05T06:46:02.734Z,28.7
2018-11-05T06:47:04.878Z,28.7
2018-11-05T06:48:06.505Z,28.7
2018-11-05T06:49:08.665Z,28.7
2018-11-05T06:50:11.090Z,28.7
2018-11-05T06:51:13.243Z,28.7
2018-11-05T06:52:15.673Z,28.6
2018-11-05T06:53:18.091Z,28.7
2018-11-05T06:54:20.259Z,28.7
2018-11-05T06:55:22.686Z,28.7
2018-11-05T06:56:24.823Z,28.7
2018-11-05T06:57:26.155Z,28.7
2018-11-05T06:58:28.044Z,28.8
2018-11-05T06:59:29.919Z,28.8
2018-11-05T07:00:32.083Z,28.8
2018-11-05T07:01:33.709Z,28.5
2018-11-05T07:02:36.409Z,28.6
2018-11-05T07:03:39.447Z,28.8
2018-11-05T07:04:41.873Z,28.7
2018-11-05T07:05:44.218Z,28.6
2018-11-05T07:06:46.463Z,28.6
2018-11-05T07:07:48.349Z,28.6
2018-11-05T07:08:50.777Z,28.7
2018-11-05T07:09:53.062Z,28.7
2018-11-05T07:10:55.041Z,28.6
2018-11-05T07:11:56.631Z,28.7
2018-11-05T07:12:58.809Z,28.7
2018-11-05T07:14:01.228Z,28.7
2018-11-05T07:15:03.672Z,28.6
2018-11-05T07:16:06.092Z,28.7
2018-11-05T07:17:08.239Z,28.7
2018-11-05T07:18:10.422Z,28.7
2018-11-05T07:19:13.817Z,28.6
2018-11-05T07:20:16.129Z,28.6
2018-11-05T07:21:18.019Z,28.7
2018-11-05T07:22:19.889Z,28.7
2018-11-05T07:23:22.325Z,28.6
2018-11-05T07:24:24.211Z,28.7
2018-11-05T07:25:26.101Z,28.7
2018-11-05T07:26:28.609Z,28.7
2018-11-05T07:27:30.946Z,28.7
2018-11-05T07:28:32.850Z,28.7
2018-11-05T07:29:34.725Z,28.7
2018-11-05T07:30:36.599Z,28.7
2018-11-05T07:31:38.749Z,28.7
2018-11-05T07:32:40.906Z,28.6
2018-11-05T07:33:43.134Z,28.7
2018-11-05T07:34:46.073Z,28.8
2018-11-05T07:35:48.491Z,28.8
2018-11-05T07:36:50.392Z,28.6
2018-11-05T07:37:52.550Z,28.7
2018-11-05T07:38:54.719Z,28.5
2018-11-05T07:39:56.858Z,28.7
2018-11-05T07:40:59.042Z,28.7
2018-11-05T07:42:00.905Z,28.6
2018-11-05T07:43:03.335Z,28.7
2018-11-05T07:44:05.231Z,28.7
2018-11-05T07:45:07.372Z,28.6
2018-11-05T07:46:09.174Z,28.7
2018-11-05T07:47:11.339Z,28.7
2018-11-05T07:48:13.526Z,28.8
2018-11-05T07:49:15.956Z,28.7
2018-11-05T07:50:18.460Z,28.7
2018-11-05T07:51:21.540Z,28.7
2018-11-05T07:52:23.674Z,28.7
2018-11-05T07:53:25.809Z,28.8
2018-11-05T07:54:27.956Z,28.7
2018-11-05T07:55:30.375Z,28.7
2018-11-05T07:56:32.851Z,28.7
2018-11-05T07:57:35.016Z,28.7
2018-11-05T07:58:37.452Z,28.7
2018-11-05T07:59:39.875Z,28.7
2018-11-05T08:00:41.750Z,28.8
2018-11-05T08:01:43.608Z,28.7
2018-11-05T08:02:45.259Z,28.7
2018-11-05T08:03:46.871Z,28.7
2018-11-05T08:04:49.023Z,28.7
2018-11-05T08:05:51.452Z,28.8
2018-11-05T08:06:53.887Z,28.7
2018-11-05T08:07:55.497Z,28.8
2018-11-05T08:08:57.920Z,28.6
2018-11-05T08:09:59.780Z,28.7
2018-11-05T08:11:02.207Z,28.7
2018-11-05T08:12:04.370Z,28.7
2018-11-05T08:13:06.236Z,28.6
2018-11-05T08:14:08.411Z,28.6
2018-11-05T08:15:10.622Z,28.6
2018-11-05T08:16:13.088Z,28.8
2018-11-05T08:17:15.238Z,28.7
2018-11-05T08:18:17.397Z,28.6
2018-11-05T08:19:19.561Z,28.7
2018-11-05T08:20:21.407Z,28.7
2018-11-05T08:21:23.038Z,28.6
2018-11-05T08:22:24.900Z,28.7
2018-11-05T08:23:27.040Z,28.7
2018-11-05T08:24:29.200Z,28.6
2018-11-05T08:25:31.348Z,28.7
2018-11-05T08:26:33.511Z,28.6
2018-11-05T08:27:35.381Z,28.6
2018-11-05T08:28:37.807Z,28.6
2018-11-05T08:29:39.705Z,28.5
2018-11-05T08:30:42.144Z,28.6
2018-11-05T08:31:44.300Z,28.5
2018-11-05T08:32:46.731Z,28.7
2018-11-05T08:33:48.888Z,28.5
2018-11-05T08:34:51.041Z,28.7
2018-11-05T08:35:53.478Z,28.5
2018-11-05T08:36:55.906Z,28.6
2018-11-05T08:37:58.072Z,28.6
2018-11-05T08:39:00.220Z,28.6
2018-11-05T08:40:02.141Z,28.6
2018-11-05T08:41:04.040Z,28.7
2018-11-05T08:42:06.193Z,28.6
2018-11-05T08:43:07.816Z,28.6
2018-11-05T08:44:10.250Z,28.7
2018-11-05T08:45:12.415Z,28.6
2018-11-05T08:46:14.576Z,28.4
2018-11-05T08:47:16.436Z,28.6
2018-11-05T08:48:18.588Z,28.6
2018-11-05T08:49:20.450Z,28.6
2018-11-05T08:50:23.140Z,28.6
2018-11-05T08:51:26.784Z,28.6
2018-11-05T08:52:29.733Z,28.7
2018-11-05T08:53:31.331Z,28.7
2018-11-05T08:54:33.506Z,28.6
2018-11-05T08:55:35.946Z,28.6
2018-11-05T08:56:38.121Z,28.6
2018-11-05T08:57:40.777Z,28.7
2018-11-05T08:58:42.630Z,28.7
2018-11-05T08:59:44.789Z,28.6
2018-11-05T09:00:47.304Z,28.5
2018-11-05T09:01:49.512Z,28.5
2018-11-05T09:02:51.139Z,28.7
2018-11-05T09:03:53.588Z,28.6
2018-11-05T09:04:55.254Z,28.5
2018-11-05T09:05:57.548Z,28.5
2018-11-05T09:06:59.158Z,28.4
2018-11-05T09:08:01.601Z,28.6
2018-11-05T09:09:03.762Z,28.4
2018-11-05T09:10:05.895Z,28.3
2018-11-05T09:11:09.646Z,28.5
2018-11-05T09:12:13.942Z,28.6
2018-11-05T09:13:16.573Z,28.7
2018-11-05T09:14:18.994Z,28.5
2018-11-05T09:15:21.415Z,28.6
2018-11-05T09:16:23.857Z,28.4
2018-11-05T09:17:26.290Z,28.5
2018-11-05T09:18:28.720Z,28.6
2018-11-05T09:19:30.872Z,28.4
2018-11-05T09:20:32.752Z,28.5
2018-11-05T09:21:34.665Z,28.6
2018-11-05T09:22:37.098Z,28.4
2018-11-05T09:23:39.254Z,28.7
2018-11-05T09:24:41.679Z,28.3
2018-11-05T09:25:44.115Z,28.6
2018-11-05T09:26:46.550Z,28.5
2018-11-05T09:27:49.081Z,28.5
2018-11-05T09:28:51.959Z,28.6
2018-11-05T09:29:54.125Z,28.5
2018-11-05T09:30:56.063Z,28.4
2018-11-05T09:31:57.948Z,28.6
2018-11-05T09:33:00.371Z,28.6
2018-11-05T09:34:01.964Z,28.5
2018-11-05T09:35:04.392Z,28.5
2018-11-05T09:36:06.280Z,28.6
2018-11-05T09:37:07.889Z,28.5
2018-11-05T09:38:10.049Z,28.5
2018-11-05T09:39:12.489Z,28.6
2018-11-05T09:40:14.641Z,28.5
2018-11-05T09:41:16.791Z,28.5
2018-11-05T09:42:18.951Z,28.7
2018-11-05T09:43:21.132Z,28.5
2018-11-05T09:44:23.275Z,28.6
2018-11-05T09:45:25.692Z,28.5
2018-11-05T09:46:28.117Z,28.7
2018-11-05T09:47:30.538Z,28.5
2018-11-05T09:48:32.970Z,28.5
2018-11-05T09:49:35.564Z,28.5
2018-11-05T09:50:37.683Z,28.7
2018-11-05T09:51:39.773Z,28.5
2018-11-05T09:52:42.204Z,28.6
2018-11-05T09:53:44.628Z,28.5
2018-11-05T09:54:46.518Z,28.5
2018-11-05T09:55:48.672Z,28.5
2018-11-05T09:56:51.103Z,28.6
2018-11-05T09:57:53.258Z,28.5
2018-11-05T09:58:55.700Z,28.6
2018-11-05T09:59:57.610Z,28.6
2018-11-05T10:00:59.520Z,28.5
2018-11-05T10:02:01.644Z,28.7
2018-11-05T10:03:04.429Z,28.5
2018-11-05T10:04:07.506Z,28.5
2018-11-05T10:05:11.052Z,28.7
2018-11-05T10:06:14.603Z,28.5
2018-11-05T10:07:16.206Z,28.6
2018-11-05T10:08:17.911Z,28.6
2018-11-05T10:09:20.338Z,28.4
2018-11-05T10:10:22.761Z,28.6
2018-11-05T10:11:25.675Z,28.7
2018-11-05T10:12:27.539Z,28.7
2018-11-05T10:13:29.699Z,28.6
2018-11-05T10:14:32.139Z,28.6
2018-11-05T10:15:34.569Z,28.5
2018-11-05T10:16:36.995Z,28.4
2018-11-05T10:17:39.150Z,28.7
2018-11-05T10:18:41.303Z,28.4
2018-11-05T10:19:43.730Z,28.6
2018-11-05T10:20:46.167Z,28.6
2018-11-05T10:21:48.601Z,28.6
2018-11-05T10:22:50.502Z,28.6
2018-11-05T10:23:52.110Z,28.6
2018-11-05T10:24:55.082Z,28.7
2018-11-05T10:25:58.654Z,28.7
2018-11-05T10:27:00.253Z,28.6
2018-11-05T10:28:02.112Z,28.5
2018-11-05T10:29:04.265Z,28.7
2018-11-05T10:30:06.403Z,28.7
2018-11-05T10:31:08.579Z,28.7
2018-11-05T10:32:10.728Z,28.6
2018-11-05T10:33:13.190Z,28.6
2018-11-05T10:34:15.155Z,28.7
2018-11-05T10:35:17.586Z,28.6
2018-11-05T10:36:19.479Z,28.6
2018-11-05T10:37:21.902Z,28.6
2018-11-05T10:38:24.117Z,28.7
2018-11-05T10:39:26.650Z,28.7
2018-11-05T10:40:28.356Z,28.7
2018-11-05T10:41:31.009Z,28.5
2018-11-05T10:42:33.156Z,28.5
2018-11-05T10:43:35.589Z,28.6
2018-11-05T10:44:37.451Z,28.5
2018-11-05T10:45:39.640Z,28.6
2018-11-05T10:46:42.063Z,28.7
2018-11-05T10:47:44.482Z,28.7
2018-11-05T10:48:46.386Z,28.5
2018-11-05T10:49:48.558Z,28.6
2018-11-05T10:50:50.990Z,28.6
2018-11-05T10:51:53.355Z,28.6
2018-11-05T10:52:55.960Z,28.8
2018-11-05T10:53:58.400Z,28.6
2018-11-05T10:55:00.589Z,28.6
2018-11-05T10:56:02.496Z,28.6
2018-11-05T10:57:04.656Z,28.7
2018-11-05T10:58:07.368Z,28.8
2018-11-05T10:59:10.142Z,28.7
2018-11-05T11:00:12.298Z,28.6
2018-11-05T11:01:14.732Z,28.7
2018-11-05T11:02:16.369Z,28.6
2018-11-05T11:03:18.553Z,28.6
2018-11-05T11:04:20.430Z,28.5
2018-11-05T11:05:22.931Z,28.5
2018-11-05T11:06:25.090Z,28.7
2018-11-05T11:07:27.511Z,28.5
2018-11-05T11:08:29.674Z,28.6
2018-11-05T11:09:31.699Z,28.6
2018-11-05T11:10:34.206Z,28.5
2018-11-05T11:11:36.635Z,28.6
2018-11-05T11:12:38.778Z,28.7
2018-11-05T11:13:40.651Z,28.5
2018-11-05T11:14:42.264Z,28.6
2018-11-05T11:15:44.129Z,28.6
2018-11-05T11:16:45.744Z,28.7
2018-11-05T11:17:48.176Z,28.6
2018-11-05T11:18:49.807Z,28.4
2018-11-05T11:19:51.392Z,28.6
2018-11-05T11:20:53.258Z,28.7
2018-11-05T11:21:55.454Z,28.7
2018-11-05T11:22:57.175Z,28.7
2018-11-05T11:23:59.051Z,28.6
2018-11-05T11:25:01.480Z,28.6
2018-11-05T11:26:03.353Z,28.8
2018-11-05T11:27:05.781Z,28.6
2018-11-05T11:28:07.784Z,28.7
2018-11-05T11:29:09.577Z,28.7
2018-11-05T11:30:11.665Z,28.5
2018-11-05T11:31:13.548Z,28.7
2018-11-05T11:32:15.163Z,28.7
2018-11-05T11:33:17.039Z,28.7
2018-11-05T11:34:19.246Z,28.7
2018-11-05T11:35:21.093Z,28.6
2018-11-05T11:36:23.279Z,28.7
2018-11-05T11:37:25.330Z,28.6
2018-11-05T11:38:27.487Z,28.5
2018-11-05T11:39:29.918Z,28.7
2018-11-05T11:40:31.807Z,28.7
2018-11-05T11:41:33.676Z,28.6
2018-11-05T11:42:35.299Z,28.7
2018-11-05T11:43:37.474Z,28.7
2018-11-05T11:44:39.658Z,28.5
2018-11-05T11:45:41.945Z,28.8
2018-11-05T11:46:44.112Z,28.6
2018-11-05T11:47:46.001Z,28.6
2018-11-05T11:48:48.435Z,28.7
2018-11-05T11:49:50.603Z,28.6
2018-11-05T11:50:52.763Z,28.6
2018-11-05T11:51:54.355Z,28.5
2018-11-05T11:52:56.320Z,28.7
2018-11-05T11:53:59.062Z,28.7
2018-11-05T11:55:00.973Z,28.5
2018-11-05T11:56:02.853Z,28.6
2018-11-05T11:57:04.775Z,28.7
2018-11-05T11:58:06.663Z,28.5
2018-11-05T11:59:08.853Z,28.6
2018-11-05T12:00:10.928Z,28.6
2018-11-05T12:01:13.436Z,28.6
2018-11-05T12:02:15.732Z,28.5
2018-11-05T12:03:18.080Z,28.7
2018-11-05T12:04:20.654Z,28.6
2018-11-05T12:05:23.325Z,28.7
2018-11-05T12:06:26.070Z,28.5
2018-11-05T12:07:28.230Z,28.7
2018-11-05T12:08:30.400Z,28.6
2018-11-05T12:09:32.266Z,28.5
2018-11-05T12:10:34.684Z,28.6
2018-11-05T12:11:36.556Z,28.4
2018-11-05T12:12:38.982Z,28.6
2018-11-05T12:13:41.146Z,28.7
2018-11-05T12:14:42.886Z,28.6
2018-11-05T12:15:46.019Z,28.7
2018-11-05T12:16:48.448Z,28.7
2018-11-05T12:17:50.621Z,28.6
2018-11-05T12:18:52.503Z,28.7
2018-11-05T12:19:54.933Z,28.6
2018-11-05T12:20:57.362Z,28.6
2018-11-05T12:21:59.501Z,28.5
2018-11-05T12:23:01.389Z,28.6
2018-11-05T12:24:03.821Z,28.6
2018-11-05T12:25:06.461Z,28.6
2018-11-05T12:26:08.617Z,28.6
2018-11-05T12:27:10.495Z,28.6
2018-11-05T12:28:12.109Z,28.5
2018-11-05T12:29:14.542Z,28.5
2018-11-05T12:30:16.989Z,28.7
2018-11-05T12:31:19.170Z,28.6
2018-11-05T12:32:21.045Z,28.5
2018-11-05T12:33:22.928Z,28.6
2018-11-05T12:34:25.090Z,28.5
2018-11-05T12:35:26.985Z,28.5
2018-11-05T12:36:29.435Z,28.6
2018-11-05T12:37:31.609Z,28.6
2018-11-05T12:38:33.771Z,28.5
2018-11-05T12:39:35.769Z,28.6
2018-11-05T12:40:38.204Z,28.6
2018-11-05T12:41:40.356Z,28.7
2018-11-05T12:42:42.507Z,28.6
2018-11-05T12:43:44.684Z,28.5
2018-11-05T12:44:46.320Z,28.5
2018-11-05T12:45:48.540Z,28.5
2018-11-05T12:46:50.690Z,28.7
2018-11-05T12:47:53.134Z,28.5
2018-11-05T12:48:55.273Z,28.6
2018-11-05T12:49:57.705Z,28.5
2018-11-05T12:51:00.129Z,28.6
2018-11-05T12:52:02.556Z,28.4
2018-11-05T12:53:04.994Z,28.7
2018-11-05T12:54:07.447Z,28.7
2018-11-05T12:55:09.879Z,28.5
2018-11-05T12:56:12.056Z,28.6
2018-11-05T12:57:14.211Z,28.6
2018-11-05T12:58:15.811Z,28.5
2018-11-05T12:59:17.957Z,28.6
2018-11-05T13:00:19.870Z,28.7
2018-11-05T13:01:22.295Z,28.6
2018-11-05T13:02:24.731Z,28.6
2018-11-05T13:03:26.890Z,28.4
2018-11-05T13:04:29.039Z,28.5
2018-11-05T13:05:31.186Z,28.5
2018-11-05T13:06:33.108Z,28.6
2018-11-05T13:07:35.695Z,28.6
2018-11-05T13:08:38.399Z,28.6
2018-11-05T13:09:40.538Z,28.3
2018-11-05T13:10:42.971Z,28.6
2018-11-05T13:11:45.396Z,28.6
2018-11-05T13:12:47.822Z,28.5
2018-11-05T13:13:50.259Z,28.6
2018-11-05T13:14:52.692Z,28.5
2018-11-05T13:15:55.113Z,28.6
2018-11-05T13:16:57.287Z,28.5
2018-11-05T13:17:59.160Z,28.7
2018-11-05T13:19:01.411Z,28.7
2018-11-05T13:20:03.601Z,28.6
2018-11-05T13:21:05.770Z,28.4
2018-11-05T13:22:07.973Z,28.6
2018-11-05T13:23:10.048Z,28.5
2018-11-05T13:24:12.357Z,28.6
2018-11-05T13:25:14.242Z,28.6
2018-11-05T13:26:16.113Z,28.6
2018-11-05T13:27:17.737Z,28.6
2018-11-05T13:28:19.981Z,28.6
2018-11-05T13:29:22.397Z,28.6
2018-11-05T13:30:24.259Z,28.4
2018-11-05T13:31:26.139Z,28.6
2018-11-05T13:32:28.571Z,28.5
2018-11-05T13:33:29.908Z,28.6
2018-11-05T13:34:32.364Z,28.6
2018-11-05T13:35:34.792Z,28.7
2018-11-05T13:36:37.525Z,28.5
2018-11-05T13:37:41.344Z,28.6
2018-11-05T13:38:44.355Z,28.6
2018-11-05T13:39:47.169Z,28.6
2018-11-05T13:40:49.590Z,28.7
2018-11-05T13:41:52.017Z,28.6
2018-11-05T13:42:54.448Z,28.6
2018-11-05T13:43:56.607Z,28.6
2018-11-05T13:44:59.125Z,28.5
2018-11-05T13:46:02.171Z,28.6
2018-11-05T13:47:08.233Z,28.5
2018-11-05T13:48:15.300Z,28.5
2018-11-05T13:49:20.190Z,28.5